Time;durP1;ratioP1;P1;durP2;ratioP2;P2;SDS_P1;SDS_P2;PMS_P1;PMS_P2;Temp;Humidity;BMP_temperature;BMP_pressure;BME280_temperature;BME280_humidity;BME280_pressure;Samples;Min_cycle;Max_cycle;Signal;HPM_P1;HPM_P2
2021/05/12 00:02:20;;;;;;;21.47;16.80;;;;;;;;;;5058480;28;20280;-70
2021/05/12 00:04:45;;;;;;;25.27;17.30;;;;;;;;;;5068223;28;20219;-70
2021/05/12 00:07:10;;;;;;;21.60;17.67;;;;;;;;;;5068786;28;20212;-70
2021/05/12 00:09:35;;;;;;;26.97;19.93;;;;;;;;;;5064695;28;20177;-69
2021/05/12 00:12:01;;;;;;;22.80;18.40;;;;;;;;;;5062923;28;20201;-69
2021/05/12 00:14:26;;;;;;;26.13;20.17;;;;;;;;;;5065801;28;20176;-69
2021/05/12 00:16:53;;;;;;;31.70;18.77;;;;;;;;;;5069592;28;20172;-70
2021/05/12 00:19:20;;;;;;;24.97;18.37;;;;;;;;;;5070376;28;20232;-70
2021/05/12 00:21:49;;;;;;;25.43;17.97;;;;;;;;;;5076478;28;20570;-69
2021/05/12 00:24:15;;;;;;;26.53;19.93;;;;;;;;;;5073338;28;20188;-70
2021/05/12 00:26:41;;;;;;;24.07;17.27;;;;;;;;;;5065801;28;20165;-67
2021/05/12 00:29:11;;;;;;;23.07;17.63;;;;;;;;;;5074359;28;20255;-69
2021/05/12 00:31:36;;;;;;;24.37;19.40;;;;;;;;;;5073731;28;20719;-69
2021/05/12 00:34:02;;;;;;;32.17;21.23;;;;;;;;;;5068868;28;20181;-69
2021/05/12 00:36:27;;;;;;;31.40;20.33;;;;;;;;;;5074998;28;20196;-69
2021/05/12 00:38:53;;;;;;;28.33;19.43;;;;;;;;;;5071051;28;20203;-70
2021/05/12 00:41:18;;;;;;;26.77;20.97;;;;;;;;;;5071478;28;20642;-70
2021/05/12 00:43:44;;;;;;;26.67;21.40;;;;;;;;;;5071737;28;20211;-69
2021/05/12 00:46:09;;;;;;;27.10;21.17;;;;;;;;;;5068511;28;20192;-70
2021/05/12 00:48:34;;;;;;;28.90;20.80;;;;;;;;;;5071715;28;20272;-69
2021/05/12 00:51:00;;;;;;;34.83;21.37;;;;;;;;;;5074755;28;20181;-70
2021/05/12 00:53:25;;;;;;;24.63;18.10;;;;;;;;;;5061748;28;20201;-70
2021/05/12 00:55:50;;;;;;;20.30;17.73;;;;;;;;;;5073359;28;20180;-70
2021/05/12 00:58:15;;;;;;;34.03;19.90;;;;;;;;;;5069235;28;20209;-70
2021/05/12 01:00:40;;;;;;;26.60;18.57;;;;;;;;;;5070017;28;20178;-68
2021/05/12 01:03:06;;;;;;;22.40;16.90;;;;;;;;;;5064863;28;20205;-69
2021/05/12 01:05:34;;;;;;;27.50;18.27;;;;;;;;;;5066330;28;20169;-70
2021/05/12 01:07:59;;;;;;;25.70;19.07;;;;;;;;;;5067404;28;20210;-70
2021/05/12 01:10:25;;;;;;;25.80;20.37;;;;;;;;;;5073884;28;20278;-70
2021/05/12 01:12:50;;;;;;;31.50;20.83;;;;;;;;;;5064228;28;20599;-70
2021/05/12 01:15:16;;;;;;;29.50;22.10;;;;;;;;;;5065248;28;20181;-70
2021/05/12 01:17:41;;;;;;;23.03;20.00;;;;;;;;;;5069569;28;20260;-70
2021/05/12 01:20:07;;;;;;;25.27;20.90;;;;;;;;;;5062516;28;20205;-70
2021/05/12 01:22:33;;;;;;;27.40;21.20;;;;;;;;;;5067196;28;20201;-70
2021/05/12 01:24:58;;;;;;;31.80;22.30;;;;;;;;;;5068970;28;20543;-70
2021/05/12 01:27:23;;;;;;;24.07;18.70;;;;;;;;;;5066040;28;20178;-70
2021/05/12 01:29:48;;;;;;;23.93;18.43;;;;;;;;;;5067224;28;20220;-70
2021/05/12 01:32:13;;;;;;;26.97;20.77;;;;;;;;;;5061768;28;20206;-70
2021/05/12 01:34:39;;;;;;;30.13;22.30;;;;;;;;;;5069130;28;20218;-70
2021/05/12 01:37:04;;;;;;;30.57;22.87;;;;;;;;;;5062683;28;20593;-70
2021/05/12 01:39:29;;;;;;;26.30;21.60;;;;;;;;;;5066742;28;20205;-70
2021/05/12 01:41:54;;;;;;;24.30;19.93;;;;;;;;;;5054876;28;20255;-70
2021/05/12 01:44:20;;;;;;;26.10;20.83;;;;;;;;;;5061495;28;20192;-70
2021/05/12 01:46:46;;;;;;;29.53;21.50;;;;;;;;;;5067774;28;20271;-70
2021/05/12 01:49:12;;;;;;;31.17;25.87;;;;;;;;;;5065676;28;20180;-71
2021/05/12 01:51:37;;;;;;;33.40;25.73;;;;;;;;;;5067562;28;20212;-70
2021/05/12 01:54:04;;;;;;;30.10;25.53;;;;;;;;;;5063979;28;20263;-70
2021/05/12 01:56:29;;;;;;;34.93;27.07;;;;;;;;;;5064353;28;20173;-70
2021/05/12 01:58:55;;;;;;;32.87;23.50;;;;;;;;;;5059430;28;20223;-70
2021/05/12 02:01:20;;;;;;;31.77;23.73;;;;;;;;;;5058565;28;20177;-71
2021/05/12 02:03:45;;;;;;;35.30;26.07;;;;;;;;;;5061644;28;20224;-70
2021/05/12 02:06:10;;;;;;;31.07;24.90;;;;;;;;;;5066892;28;20192;-70
2021/05/12 02:08:36;;;;;;;32.03;25.33;;;;;;;;;;5065862;28;20185;-70
2021/05/12 02:11:02;;;;;;;40.07;27.40;;;;;;;;;;5067614;28;20215;-70
2021/05/12 02:13:30;;;;;;;34.30;26.43;;;;;;;;;;5067177;28;20177;-69
2021/05/12 02:15:56;;;;;;;32.23;23.67;;;;;;;;;;5061480;28;20188;-71
2021/05/12 02:18:21;;;;;;;39.10;26.53;;;;;;;;;;5067436;28;20193;-71
2021/05/12 02:20:46;;;;;;;32.53;25.27;;;;;;;;;;5068654;28;20208;-70
2021/05/12 02:23:12;;;;;;;31.90;23.80;;;;;;;;;;5064994;28;20194;-70
2021/05/12 02:25:38;;;;;;;32.40;24.80;;;;;;;;;;5066332;28;20170;-70
2021/05/12 02:28:03;;;;;;;34.80;25.30;;;;;;;;;;5062294;28;20595;-70
2021/05/12 02:30:29;;;;;;;27.03;22.27;;;;;;;;;;5067796;28;20176;-69
2021/05/12 02:32:56;;;;;;;32.07;27.00;;;;;;;;;;5060875;28;20193;-70
2021/05/12 02:35:21;;;;;;;29.40;23.47;;;;;;;;;;5066574;28;20181;-69
2021/05/12 02:37:46;;;;;;;29.40;24.13;;;;;;;;;;5060615;28;20717;-70
2021/05/12 02:40:13;;;;;;;36.90;24.40;;;;;;;;;;5064480;28;20212;-70
2021/05/12 02:42:38;;;;;;;32.53;23.87;;;;;;;;;;5063174;28;20197;-69
2021/05/12 02:45:05;;;;;;;26.60;22.17;;;;;;;;;;5064509;28;20264;-70
2021/05/12 02:47:30;;;;;;;27.50;19.97;;;;;;;;;;5061736;28;20177;-70
2021/05/12 02:49:55;;;;;;;28.80;20.17;;;;;;;;;;5064627;28;20629;-70
2021/05/12 02:52:20;;;;;;;23.30;18.33;;;;;;;;;;5064344;28;20212;-67
2021/05/12 02:54:46;;;;;;;26.00;18.00;;;;;;;;;;5057583;28;20714;-70
2021/05/12 02:57:11;;;;;;;19.57;15.27;;;;;;;;;;5057359;28;20189;-69
2021/05/12 02:59:37;;;;;;;19.27;14.57;;;;;;;;;;5059961;28;20251;-70
2021/05/12 03:02:02;;;;;;;17.80;14.60;;;;;;;;;;5060936;28;20224;-70
2021/05/12 03:04:27;;;;;;;16.87;13.73;;;;;;;;;;5064642;28;20177;-70
2021/05/12 03:06:53;;;;;;;21.33;14.60;;;;;;;;;;5060755;28;20173;-70
2021/05/12 03:09:18;;;;;;;20.87;14.30;;;;;;;;;;5062249;28;20177;-71
2021/05/12 03:11:43;;;;;;;20.53;13.17;;;;;;;;;;5065804;28;20293;-70
2021/05/12 03:14:09;;;;;;;17.63;12.80;;;;;;;;;;5069393;28;20177;-70
2021/05/12 03:16:34;;;;;;;14.97;13.40;;;;;;;;;;5059500;28;20199;-71
2021/05/12 03:18:59;;;;;;;18.43;14.03;;;;;;;;;;5062921;28;20193;-70
2021/05/12 03:21:25;;;;;;;20.80;14.53;;;;;;;;;;5058827;28;20690;-70
2021/05/12 03:23:50;;;;;;;19.47;14.67;;;;;;;;;;5065292;28;20176;-70
2021/05/12 03:26:18;;;;;;;18.80;15.83;;;;;;;;;;5062634;28;20178;-70
2021/05/12 03:28:46;;;;;;;17.07;14.03;;;;;;;;;;5063981;28;20187;-69
2021/05/12 03:31:12;;;;;;;20.17;15.87;;;;;;;;;;5066013;28;20185;-69
2021/05/12 03:33:38;;;;;;;21.40;14.77;;;;;;;;;;5056286;28;20188;-70
2021/05/12 03:36:04;;;;;;;20.57;16.93;;;;;;;;;;5065775;28;20563;-70
2021/05/12 03:38:29;;;;;;;18.97;16.50;;;;;;;;;;5068496;28;20758;-69
2021/05/12 03:40:54;;;;;;;22.87;17.47;;;;;;;;;;5061066;28;20288;-70
2021/05/12 03:43:19;;;;;;;19.60;17.57;;;;;;;;;;5067399;28;20230;-70
2021/05/12 03:45:45;;;;;;;23.17;18.00;;;;;;;;;;5059381;28;20177;-70
2021/05/12 03:48:10;;;;;;;20.57;17.73;;;;;;;;;;5058543;28;20239;-71
2021/05/12 03:50:35;;;;;;;25.00;18.10;;;;;;;;;;5062503;28;20173;-71
2021/05/12 03:53:01;;;;;;;21.87;17.80;;;;;;;;;;5066637;28;20227;-70
2021/05/12 03:55:26;;;;;;;22.97;19.93;;;;;;;;;;5058696;28;20172;-70
2021/05/12 03:57:52;;;;;;;26.53;19.50;;;;;;;;;;5062586;28;20260;-70
2021/05/12 04:00:17;;;;;;;23.07;18.70;;;;;;;;;;5063847;28;20208;-70
2021/05/12 04:02:43;;;;;;;23.13;18.67;;;;;;;;;;5062626;28;20201;-70
2021/05/12 04:05:09;;;;;;;21.03;17.80;;;;;;;;;;5066841;28;20546;-70
2021/05/12 04:07:35;;;;;;;27.43;19.60;;;;;;;;;;5065011;28;20235;-71
2021/05/12 04:10:00;;;;;;;30.10;19.80;;;;;;;;;;5065989;28;20181;-69
2021/05/12 04:12:25;;;;;;;29.43;20.50;;;;;;;;;;5066912;28;20556;-69
2021/05/12 04:14:50;;;;;;;26.73;18.67;;;;;;;;;;5066435;28;20173;-70
2021/05/12 04:17:16;;;;;;;23.23;17.53;;;;;;;;;;5062299;28;20211;-71
2021/05/12 04:19:41;;;;;;;24.33;18.60;;;;;;;;;;5062404;28;20205;-71
2021/05/12 04:22:06;;;;;;;23.60;16.77;;;;;;;;;;5066209;28;20288;-70
2021/05/12 04:24:32;;;;;;;22.40;16.73;;;;;;;;;;5060734;28;20178;-70
2021/05/12 04:26:57;;;;;;;29.60;17.10;;;;;;;;;;5062573;28;20243;-69
2021/05/12 04:29:22;;;;;;;22.67;16.37;;;;;;;;;;5061576;28;20200;-70
2021/05/12 04:31:48;;;;;;;20.03;15.43;;;;;;;;;;5060592;28;20226;-70
2021/05/12 04:34:13;;;;;;;22.47;15.60;;;;;;;;;;5060364;28;20182;-71
2021/05/12 04:36:39;;;;;;;24.03;15.50;;;;;;;;;;5063255;28;20188;-70
2021/05/12 04:39:04;;;;;;;21.07;15.90;;;;;;;;;;5069773;28;20189;-70
2021/05/12 04:41:29;;;;;;;26.93;15.50;;;;;;;;;;5066864;28;20217;-70
2021/05/12 04:43:54;;;;;;;26.00;16.20;;;;;;;;;;5068479;28;20170;-70
2021/05/12 04:46:20;;;;;;;22.77;16.40;;;;;;;;;;5066989;28;20588;-70
2021/05/12 04:48:45;;;;;;;28.60;16.83;;;;;;;;;;5066274;28;20215;-71
2021/05/12 04:51:11;;;;;;;26.37;17.47;;;;;;;;;;5062718;28;20174;-71
2021/05/12 04:53:36;;;;;;;28.10;18.57;;;;;;;;;;5067089;28;20682;-71
2021/05/12 04:56:01;;;;;;;28.77;17.97;;;;;;;;;;5064907;28;20185;-72
2021/05/12 04:58:26;;;;;;;26.53;18.80;;;;;;;;;;5063561;28;20262;-71
2021/05/12 05:00:52;;;;;;;27.30;18.77;;;;;;;;;;5064515;28;20439;-71
2021/05/12 05:03:17;;;;;;;28.27;18.40;;;;;;;;;;5066138;28;20185;-71
2021/05/12 05:05:42;;;;;;;24.10;17.27;;;;;;;;;;5067571;28;20212;-71
2021/05/12 05:08:07;;;;;;;25.10;16.97;;;;;;;;;;5068274;28;20201;-69
2021/05/12 05:10:33;;;;;;;25.87;18.10;;;;;;;;;;5070159;28;20670;-70
2021/05/12 05:12:58;;;;;;;27.73;17.87;;;;;;;;;;5061311;28;20201;-71
2021/05/12 05:15:23;;;;;;;21.83;16.10;;;;;;;;;;5064736;28;20181;-71
2021/05/12 05:17:49;;;;;;;21.43;15.40;;;;;;;;;;5066717;28;20179;-70
2021/05/12 05:20:15;;;;;;;21.43;15.53;;;;;;;;;;5056901;28;20214;-70
2021/05/12 05:22:41;;;;;;;23.73;15.33;;;;;;;;;;5070453;28;20188;-72
2021/05/12 05:25:07;;;;;;;20.47;15.23;;;;;;;;;;5060465;28;20182;-70
2021/05/12 05:27:32;;;;;;;22.00;14.27;;;;;;;;;;5063266;28;20674;-72
2021/05/12 05:29:57;;;;;;;22.07;14.77;;;;;;;;;;5062382;28;20185;-70
2021/05/12 05:32:22;;;;;;;20.37;14.67;;;;;;;;;;5066874;28;20250;-70
2021/05/12 05:34:48;;;;;;;20.43;14.13;;;;;;;;;;5067670;28;20176;-71
2021/05/12 05:37:14;;;;;;;20.40;15.13;;;;;;;;;;5064404;28;20185;-70
2021/05/12 05:39:40;;;;;;;20.23;14.17;;;;;;;;;;5067507;28;20232;-71
2021/05/12 05:42:06;;;;;;;18.87;14.43;;;;;;;;;;5065841;28;20629;-71
2021/05/12 05:44:31;;;;;;;17.07;13.30;;;;;;;;;;5062181;28;20184;-72
2021/05/12 05:46:56;;;;;;;20.17;13.57;;;;;;;;;;5057188;28;20178;-71
2021/05/12 05:49:22;;;;;;;20.90;14.57;;;;;;;;;;5061608;28;20184;-71
2021/05/12 05:51:47;;;;;;;18.10;13.40;;;;;;;;;;5069238;28;20243;-71
2021/05/12 05:54:13;;;;;;;16.00;12.93;;;;;;;;;;5058245;28;20595;-71
2021/05/12 05:56:38;;;;;;;22.57;13.27;;;;;;;;;;5066284;28;20204;-71
2021/05/12 05:59:03;;;;;;;18.07;12.60;;;;;;;;;;5070172;28;20213;-72
2021/05/12 06:01:28;;;;;;;20.47;12.13;;;;;;;;;;5064515;28;20197;-71
2021/05/12 06:03:53;;;;;;;21.37;12.50;;;;;;;;;;5066492;28;20179;-70
2021/05/12 06:06:19;;;;;;;19.00;11.37;;;;;;;;;;5065607;28;20188;-70
2021/05/12 06:08:44;;;;;;;20.13;11.30;;;;;;;;;;5069269;28;20262;-72
2021/05/12 06:11:10;;;;;;;17.08;9.25;;;;;;;;;;5066959;28;20180;-71
2021/05/12 06:13:35;;;;;;;14.10;8.87;;;;;;;;;;5065874;28;20597;-69
2021/05/12 06:16:03;;;;;;;15.33;8.93;;;;;;;;;;5059972;28;20232;-71
2021/05/12 06:18:28;;;;;;;16.00;8.63;;;;;;;;;;5065984;28;20218;-71
2021/05/12 06:20:53;;;;;;;13.45;8.07;;;;;;;;;;5059507;28;20173;-69
2021/05/12 06:23:18;;;;;;;15.27;9.35;;;;;;;;;;5065337;28;20232;-69
2021/05/12 06:25:43;;;;;;;14.07;5.90;;;;;;;;;;5062515;28;20173;-69
2021/05/12 06:28:08;;;;;;;13.68;5.07;;;;;;;;;;5062466;28;20181;-69
2021/05/12 06:30:34;;;;;;;17.73;4.47;;;;;;;;;;5066300;28;20173;-69
2021/05/12 06:32:59;;;;;;;14.77;4.38;;;;;;;;;;5061987;28;20285;-69
2021/05/12 06:35:24;;;;;;;15.07;4.90;;;;;;;;;;5064829;28;20181;-70
2021/05/12 06:37:49;;;;;;;22.77;6.30;;;;;;;;;;5063315;28;20545;-70
2021/05/12 06:40:18;;;;;;;12.23;3.42;;;;;;;;;;5063575;28;20212;-69
2021/05/12 06:42:43;;;;;;;12.20;3.00;;;;;;;;;;5064424;28;20246;-69
2021/05/12 06:45:12;;;;;;;13.13;3.50;;;;;;;;;;5066679;28;20259;-71
2021/05/12 06:47:41;;;;;;;16.08;3.83;;;;;;;;;;5061145;28;20291;-71
2021/05/12 06:50:07;;;;;;;10.18;3.20;;;;;;;;;;5063827;28;20181;-71
2021/05/12 06:52:32;;;;;;;13.30;3.22;;;;;;;;;;5068920;28;20200;-70
2021/05/12 06:54:58;;;;;;;13.25;4.35;;;;;;;;;;5066957;28;20185;-70
2021/05/12 06:57:23;;;;;;;7.63;2.67;;;;;;;;;;5066577;28;20263;-71
2021/05/12 06:59:48;;;;;;;13.40;3.63;;;;;;;;;;5058526;28;20709;-71
2021/05/12 07:02:13;;;;;;;12.70;3.67;;;;;;;;;;5058805;28;20721;-72
2021/05/12 07:04:38;;;;;;;11.00;4.17;;;;;;;;;;5060386;28;20169;-71
2021/05/12 07:07:03;;;;;;;10.83;3.57;;;;;;;;;;5064183;28;20852;-72
2021/05/12 07:09:29;;;;;;;9.27;3.58;;;;;;;;;;5057230;28;20421;-70
2021/05/12 07:11:54;;;;;;;10.68;3.72;;;;;;;;;;5068568;28;20203;-71
2021/05/12 07:14:19;;;;;;;9.98;3.95;;;;;;;;;;5068095;28;20623;-71
2021/05/12 07:16:44;;;;;;;13.27;3.50;;;;;;;;;;5071254;28;20176;-71
2021/05/12 07:19:09;;;;;;;9.67;3.30;;;;;;;;;;5065769;28;20201;-71
2021/05/12 07:21:35;;;;;;;12.88;3.30;;;;;;;;;;5069702;28;20512;-70
2021/05/12 07:24:00;;;;;;;9.50;3.83;;;;;;;;;;5071145;28;20177;-71
2021/05/12 07:26:25;;;;;;;9.18;2.95;;;;;;;;;;5063346;28;20716;-71
2021/05/12 07:28:51;;;;;;;9.60;3.72;;;;;;;;;;5066399;28;20647;-71
2021/05/12 07:31:18;;;;;;;8.13;2.97;;;;;;;;;;5062821;28;20189;-70
2021/05/12 07:33:43;;;;;;;10.02;3.58;;;;;;;;;;5059439;28;20185;-71
2021/05/12 07:36:08;;;;;;;7.57;2.93;;;;;;;;;;5057112;28;20181;-70
2021/05/12 07:38:33;;;;;;;10.82;2.80;;;;;;;;;;5067398;28;20456;-69
2021/05/12 07:41:00;;;;;;;12.43;2.93;;;;;;;;;;5066498;28;20177;-71
2021/05/12 07:43:26;;;;;;;11.57;3.17;;;;;;;;;;5060771;28;20456;-72
2021/05/12 07:45:51;;;;;;;10.60;3.03;;;;;;;;;;5066586;28;20173;-71
2021/05/12 07:48:17;;;;;;;12.55;2.95;;;;;;;;;;5069780;28;20187;-69
2021/05/12 07:50:42;;;;;;;12.77;4.13;;;;;;;;;;5071016;28;20388;-70
2021/05/12 07:53:08;;;;;;;11.63;4.57;;;;;;;;;;5062478;28;20239;-71
2021/05/12 07:55:33;;;;;;;9.80;3.15;;;;;;;;;;5069320;28;20177;-72
2021/05/12 07:57:58;;;;;;;8.90;2.72;;;;;;;;;;5064478;28;20645;-68
2021/05/12 08:00:24;;;;;;;12.00;2.53;;;;;;;;;;5059392;28;20213;-70
2021/05/12 08:02:49;;;;;;;9.23;3.30;;;;;;;;;;5064034;28;20203;-69
2021/05/12 08:05:15;;;;;;;11.63;2.97;;;;;;;;;;5060157;28;20219;-67
2021/05/12 08:07:40;;;;;;;21.38;3.67;;;;;;;;;;5054917;28;20216;-72
2021/05/12 08:10:06;;;;;;;10.55;3.13;;;;;;;;;;5061341;28;20184;-72
2021/05/12 08:12:31;;;;;;;12.65;2.90;;;;;;;;;;5068261;28;20201;-69
2021/05/12 08:14:56;;;;;;;10.63;2.65;;;;;;;;;;5065372;28;20177;-70
2021/05/12 08:17:21;;;;;;;12.13;2.90;;;;;;;;;;5062966;28;20185;-71
2021/05/12 08:19:46;;;;;;;12.55;3.58;;;;;;;;;;5062411;28;20197;-71
2021/05/12 08:22:13;;;;;;;8.75;2.28;;;;;;;;;;5068075;28;20197;-71
2021/05/12 08:24:38;;;;;;;8.00;2.20;;;;;;;;;;5064689;28;20231;-72
2021/05/12 08:27:05;;;;;;;9.98;3.13;;;;;;;;;;5056454;28;20893;-70
2021/05/12 08:29:30;;;;;;;8.45;2.55;;;;;;;;;;5064168;28;20181;-71
2021/05/12 08:31:56;;;;;;;5.72;2.05;;;;;;;;;;5061362;28;20254;-71
2021/05/12 08:34:21;;;;;;;9.27;2.90;;;;;;;;;;5062980;28;20247;-71
2021/05/12 08:36:47;;;;;;;10.00;3.13;;;;;;;;;;5060959;28;20651;-71
2021/05/12 08:39:12;;;;;;;6.90;2.20;;;;;;;;;;5066836;28;20471;-72
2021/05/12 08:41:38;;;;;;;10.83;2.80;;;;;;;;;;5061193;28;20955;-71
2021/05/12 08:44:04;;;;;;;8.45;2.22;;;;;;;;;;5062080;28;20470;-71
2021/05/12 08:46:30;;;;;;;10.15;2.30;;;;;;;;;;5065037;28;20173;-69
2021/05/12 08:48:55;;;;;;;8.05;2.90;;;;;;;;;;5063914;28;20183;-68
2021/05/12 08:51:21;;;;;;;5.68;2.50;;;;;;;;;;5058137;28;20181;-69
2021/05/12 08:53:47;;;;;;;7.22;2.85;;;;;;;;;;5067447;28;20181;-69
2021/05/12 08:56:12;;;;;;;7.72;2.90;;;;;;;;;;5071793;28;20643;-70
2021/05/12 08:58:37;;;;;;;9.52;3.08;;;;;;;;;;5059378;28;20683;-68
2021/05/12 09:01:03;;;;;;;9.07;2.90;;;;;;;;;;5063448;28;20194;-70
2021/05/12 09:03:29;;;;;;;11.68;3.47;;;;;;;;;;5063405;28;20497;-70
2021/05/12 09:05:57;;;;;;;9.77;3.22;;;;;;;;;;5059204;28;20261;-70
2021/05/12 09:08:26;;;;;;;6.20;2.47;;;;;;;;;;5066690;28;20174;-70
2021/05/12 09:10:52;;;;;;;6.55;2.75;;;;;;;;;;5065951;28;20174;-70
2021/05/12 09:13:38;;;;;;;7.78;2.92;;;;;;;;;;5063639;28;20248;-70
2021/05/12 09:16:19;;;;;;;5.95;2.75;;;;;;;;;;5065768;28;20693;-68
2021/05/12 09:18:44;;;;;;;8.43;2.90;;;;;;;;;;5059757;28;20646;-69
2021/05/12 09:21:10;;;;;;;11.27;3.25;;;;;;;;;;5060619;28;20186;-68
2021/05/12 09:23:38;;;;;;;9.20;3.63;;;;;;;;;;5064923;28;20256;-71
2021/05/12 09:26:09;;;;;;;7.68;2.97;;;;;;;;;;5061042;28;20554;-70
2021/05/12 09:28:34;;;;;;;11.40;3.97;;;;;;;;;;5060410;28;20181;-70
2021/05/12 09:31:05;;;;;;;5.50;2.40;;;;;;;;;;5071696;28;20661;-70
2021/05/12 09:33:32;;;;;;;8.63;3.28;;;;;;;;;;5072879;28;20402;-70
2021/05/12 09:35:58;;;;;;;9.07;2.88;;;;;;;;;;5069179;28;20253;-70
2021/05/12 09:38:24;;;;;;;6.90;2.60;;;;;;;;;;5074516;28;20196;-70
2021/05/12 09:40:59;;;;;;;8.40;3.00;;;;;;;;;;5068805;28;20190;-69
2021/05/12 09:43:26;;;;;;;7.60;2.80;;;;;;;;;;5060804;28;20705;-69
2021/05/12 09:45:51;;;;;;;8.77;2.55;;;;;;;;;;5055119;28;20224;-70
2021/05/12 09:48:16;;;;;;;7.87;3.10;;;;;;;;;;5063882;28;20626;-70
2021/05/12 09:50:41;;;;;;;7.47;2.80;;;;;;;;;;5060359;28;20411;-69
2021/05/12 09:53:13;;;;;;;9.40;3.10;;;;;;;;;;5058594;28;20193;-71
2021/05/12 09:55:47;;;;;;;8.85;2.97;;;;;;;;;;5058237;28;20189;-70
2021/05/12 09:58:14;;;;;;;9.32;2.97;;;;;;;;;;5062851;28;20177;-71
2021/05/12 10:00:47;;;;;;;9.88;3.47;;;;;;;;;;5063812;28;20256;-70
2021/05/12 10:03:13;;;;;;;10.75;4.07;;;;;;;;;;5062483;28;20250;-69
2021/05/12 10:05:53;;;;;;;7.97;3.25;;;;;;;;;;5062275;28;20679;-70
2021/05/12 10:08:19;;;;;;;7.80;3.33;;;;;;;;;;5058942;28;20184;-69
2021/05/12 10:10:45;;;;;;;8.35;3.40;;;;;;;;;;5063950;28;20177;-70
2021/05/12 10:13:11;;;;;;;7.35;3.45;;;;;;;;;;5058941;28;20189;-70
2021/05/12 10:15:36;;;;;;;6.27;3.40;;;;;;;;;;5063728;28;20554;-70
2021/05/12 10:18:01;;;;;;;7.77;3.10;;;;;;;;;;5063219;28;20511;-70
2021/05/12 10:20:27;;;;;;;5.90;3.15;;;;;;;;;;5061478;28;20476;-70
2021/05/12 10:22:53;;;;;;;7.43;3.22;;;;;;;;;;5065160;28;21056;-71
2021/05/12 10:25:18;;;;;;;7.25;2.75;;;;;;;;;;5057119;28;20676;-70
2021/05/12 10:27:44;;;;;;;6.53;2.83;;;;;;;;;;5055677;28;20249;-70
2021/05/12 10:30:10;;;;;;;8.02;3.47;;;;;;;;;;5061494;28;20181;-71
2021/05/12 10:32:37;;;;;;;7.18;3.00;;;;;;;;;;5065978;28;20571;-70
2021/05/12 10:35:06;;;;;;;8.48;3.05;;;;;;;;;;5055707;28;20217;-70
2021/05/12 10:37:38;;;;;;;8.35;3.13;;;;;;;;;;5054677;28;20200;-70
2021/05/12 10:40:04;;;;;;;8.07;3.40;;;;;;;;;;5055110;28;20237;-71
2021/05/12 10:43:00;;;;;;;6.35;2.85;;;;;;;;;;5066676;28;20276;-70
2021/05/12 10:45:31;;;;;;;10.35;4.43;;;;;;;;;;5060890;28;20646;-70
2021/05/12 10:47:56;;;;;;;9.05;3.00;;;;;;;;;;5066658;28;20590;-70
2021/05/12 10:50:41;;;;;;;6.60;2.92;;;;;;;;;;5058353;28;20181;-69
2021/05/12 10:53:32;;;;;;;8.98;3.17;;;;;;;;;;5056829;28;20303;-71
2021/05/12 10:55:58;;;;;;;8.73;3.53;;;;;;;;;;5060066;28;20200;-71
2021/05/12 10:58:23;;;;;;;6.45;2.78;;;;;;;;;;5055679;28;20181;-69
2021/05/12 11:00:57;;;;;;;5.55;2.30;;;;;;;;;;5056674;28;20181;-69
2021/05/12 11:03:23;;;;;;;5.75;2.47;;;;;;;;;;5059470;28;20441;-69
2021/05/12 11:05:51;;;;;;;7.78;3.08;;;;;;;;;;5054800;28;20169;-70
2021/05/12 11:08:20;;;;;;;6.82;2.50;;;;;;;;;;5055732;28;20247;-70
2021/05/12 11:11:04;;;;;;;7.75;3.05;;;;;;;;;;5061811;28;20173;-69
2021/05/12 11:13:30;;;;;;;7.30;2.97;;;;;;;;;;5059294;28;20308;-69
2021/05/12 11:15:59;;;;;;;7.20;2.90;;;;;;;;;;5059188;28;20170;-70
2021/05/12 11:18:34;;;;;;;11.20;3.70;;;;;;;;;;5053690;28;20173;-70
2021/05/12 11:21:14;;;;;;;13.18;3.85;;;;;;;;;;5056809;28;20165;-70
2021/05/12 11:23:59;;;;;;;10.75;3.50;;;;;;;;;;5058607;28;20253;-70
2021/05/12 11:26:40;;;;;;;8.35;2.58;;;;;;;;;;5066208;28;20176;-69
2021/05/12 11:31:09;;;;;;;7.00;2.50;;;;;;;;;;5062858;28;20234;-70
2021/05/12 11:31:55;;;;;;;9.10;3.05;;;;;;;;;;5061993;28;20212;-69
2021/05/12 11:34:20;;;;;;;7.75;2.75;;;;;;;;;;5066711;28;20268;-70
2021/05/12 11:36:45;;;;;;;6.75;3.47;;;;;;;;;;5058490;28;20193;-70
2021/05/12 11:39:10;;;;;;;7.03;2.70;;;;;;;;;;5055156;28;20213;-70
2021/05/12 11:41:36;;;;;;;9.10;3.00;;;;;;;;;;5060758;28;20193;-70
2021/05/12 11:44:02;;;;;;;6.03;2.23;;;;;;;;;;5063592;28;20169;-70
2021/05/12 11:46:29;;;;;;;7.70;2.28;;;;;;;;;;5055622;28;20418;-69
2021/05/12 11:49:03;;;;;;;6.30;2.45;;;;;;;;;;5068483;28;20227;-69
2021/05/12 11:51:31;;;;;;;4.78;2.20;;;;;;;;;;5064273;28;20228;-70
2021/05/12 11:53:57;;;;;;;7.47;2.38;;;;;;;;;;5067121;28;20241;-70
2021/05/12 11:56:22;;;;;;;11.02;2.50;;;;;;;;;;5061533;28;20702;-70
2021/05/12 11:58:48;;;;;;;7.25;2.03;;;;;;;;;;5058702;28;20228;-70
2021/05/12 12:01:14;;;;;;;5.70;1.88;;;;;;;;;;5058349;28;20318;-70
2021/05/12 12:03:45;;;;;;;4.78;2.20;;;;;;;;;;5061391;28;20541;-69
2021/05/12 12:06:14;;;;;;;6.28;1.67;;;;;;;;;;5061725;28;20182;-69
2021/05/12 12:08:40;;;;;;;9.27;2.35;;;;;;;;;;5059378;28;20165;-70
2021/05/12 12:11:10;;;;;;;7.90;2.20;;;;;;;;;;5058486;28;20188;-69
2021/05/12 12:13:35;;;;;;;7.65;2.63;;;;;;;;;;5061386;28;20178;-68
2021/05/12 12:16:01;;;;;;;7.75;3.13;;;;;;;;;;5058633;28;20180;-70
2021/05/12 12:18:31;;;;;;;7.43;2.30;;;;;;;;;;5067738;28;20260;-69
2021/05/12 12:20:56;;;;;;;7.88;2.50;;;;;;;;;;5055108;28;20173;-70
2021/05/12 12:23:25;;;;;;;6.00;2.33;;;;;;;;;;5060318;28;20259;-70
2021/05/12 12:26:08;;;;;;;6.85;2.10;;;;;;;;;;5057327;28;20173;-69
2021/05/12 12:28:33;;;;;;;5.47;1.65;;;;;;;;;;5054009;28;20671;-70
2021/05/12 12:30:59;;;;;;;9.13;1.90;;;;;;;;;;5061197;28;20257;-69
2021/05/12 12:33:24;;;;;;;4.73;1.70;;;;;;;;;;5063758;28;20433;-70
2021/05/12 12:36:05;;;;;;;5.03;2.00;;;;;;;;;;5068446;28;20903;-70
2021/05/12 12:38:31;;;;;;;6.30;2.08;;;;;;;;;;5062874;28;22328;-71
2021/05/12 12:40:57;;;;;;;6.72;1.55;;;;;;;;;;5062748;28;20180;-70
2021/05/12 12:43:22;;;;;;;6.95;2.17;;;;;;;;;;5062375;28;20288;-69
2021/05/12 12:45:47;;;;;;;7.05;1.88;;;;;;;;;;5062723;28;20248;-69
2021/05/12 12:48:12;;;;;;;5.20;1.77;;;;;;;;;;5054721;28;20190;-70
2021/05/12 12:50:38;;;;;;;6.18;1.50;;;;;;;;;;5059749;28;20422;-69
2021/05/12 12:53:04;;;;;;;5.65;1.77;;;;;;;;;;5059697;28;20288;-72
2021/05/12 12:55:31;;;;;;;4.47;1.75;;;;;;;;;;5059412;28;20173;-69
2021/05/12 12:57:57;;;;;;;5.50;1.70;;;;;;;;;;5064044;28;20183;-70
2021/05/12 13:00:29;;;;;;;9.38;1.95;;;;;;;;;;5059800;28;20232;-71
2021/05/12 13:02:57;;;;;;;5.18;1.83;;;;;;;;;;5059346;28;20738;-70
2021/05/12 13:05:22;;;;;;;4.95;1.80;;;;;;;;;;5064493;28;20708;-70
2021/05/12 13:07:49;;;;;;;7.10;2.20;;;;;;;;;;5065644;28;20181;-69
2021/05/12 13:10:24;;;;;;;5.25;1.70;;;;;;;;;;5064444;28;20192;-69
2021/05/12 13:12:49;;;;;;;6.63;2.05;;;;;;;;;;5060002;28;20204;-70
2021/05/12 13:15:34;;;;;;;5.18;1.63;;;;;;;;;;5063598;28;20277;-70
2021/05/12 13:18:00;;;;;;;6.88;1.67;;;;;;;;;;5058159;28;20181;-70
2021/05/12 13:20:26;;;;;;;9.15;2.13;;;;;;;;;;5063079;28;20243;-70
2021/05/12 13:23:06;;;;;;;4.10;1.38;;;;;;;;;;5056218;28;20197;-70
2021/05/12 13:25:32;;;;;;;5.22;1.90;;;;;;;;;;5065568;28;20173;-70
2021/05/12 13:27:57;;;;;;;5.55;1.50;;;;;;;;;;5067428;28;20522;-70
2021/05/12 13:30:23;;;;;;;5.35;2.05;;;;;;;;;;5062435;28;20173;-70
2021/05/12 13:32:48;;;;;;;3.25;1.45;;;;;;;;;;5070365;28;20215;-70
2021/05/12 13:35:14;;;;;;;4.75;1.63;;;;;;;;;;5057822;28;20178;-70
2021/05/12 13:37:39;;;;;;;6.05;1.50;;;;;;;;;;5060563;28;20197;-70
2021/05/12 13:40:05;;;;;;;4.43;1.42;;;;;;;;;;5063088;28;20220;-70
2021/05/12 13:42:30;;;;;;;5.60;1.42;;;;;;;;;;5059035;28;20678;-71
2021/05/12 13:44:55;;;;;;;5.97;1.63;;;;;;;;;;5066320;28;20166;-70
2021/05/12 13:47:21;;;;;;;7.07;1.97;;;;;;;;;;5062739;28;20298;-70
2021/05/12 13:49:46;;;;;;;5.57;1.77;;;;;;;;;;5059469;28;20781;-70
2021/05/12 13:52:12;;;;;;;3.72;1.73;;;;;;;;;;5061598;28;20816;-70
2021/05/12 13:54:49;;;;;;;3.38;1.48;;;;;;;;;;5059249;28;20173;-71
2021/05/12 13:57:24;;;;;;;4.80;1.40;;;;;;;;;;5054871;28;20189;-71
2021/05/12 14:04:57;;;;;;;9.07;1.65;;;;;;;;;;5055214;28;20308;-70
2021/05/12 14:07:22;;;;;;;8.57;1.67;;;;;;;;;;5057254;28;20654;-71
2021/05/12 14:09:49;;;;;;;4.40;1.53;;;;;;;;;;5061436;28;20189;-70
2021/05/12 14:12:18;;;;;;;5.57;1.40;;;;;;;;;;5064160;28;20452;-71
2021/05/12 14:15:01;;;;;;;3.40;1.60;;;;;;;;;;5068689;28;20173;-70
2021/05/12 14:17:27;;;;;;;3.85;1.23;;;;;;;;;;5058374;28;20311;-70
2021/05/12 14:19:56;;;;;;;7.43;2.15;;;;;;;;;;5063124;28;20276;-71
2021/05/12 14:22:21;;;;;;;6.10;1.90;;;;;;;;;;5062923;28;20580;-71
2021/05/12 14:24:46;;;;;;;4.20;1.70;;;;;;;;;;5055687;28;20180;-70
2021/05/12 14:27:12;;;;;;;5.73;1.70;;;;;;;;;;5066279;28;20480;-71
2021/05/12 14:29:40;;;;;;;8.40;1.85;;;;;;;;;;5059685;28;20942;-70
2021/05/12 14:32:06;;;;;;;8.60;2.00;;;;;;;;;;5062694;28;20229;-71
2021/05/12 14:34:32;;;;;;;8.75;2.00;;;;;;;;;;5055378;28;20217;-70